sensor_id;sensor_type;location;lat;lon;timestamp;P1;durP1;ratioP1;P2;durP2;ratioP2
52438;SDS011;38359;53.150;6.504;2023-01-26T00:01:56;78.75;;;21.05;;
52438;SDS011;38359;53.150;6.504;2023-01-26T00:12:22;70.57;;;20.50;;
52438;SDS011;38359;53.150;6.504;2023-01-26T00:22:47;96.60;;;24.23;;
52438;SDS011;38359;53.150;6.504;2023-01-26T00:33:13;80.53;;;22.25;;
52438;SDS011;38359;53.150;6.504;2023-01-26T00:43:39;72.10;;;19.98;;
52438;SDS011;38359;53.150;6.504;2023-01-26T00:54:05;93.82;;;23.52;;
52438;SDS011;38359;53.150;6.504;2023-01-26T01:04:31;98.50;;;25.98;;
52438;SDS011;38359;53.150;6.504;2023-01-26T01:14:57;103.82;;;24.40;;
52438;SDS011;38359;53.150;6.504;2023-01-26T01:25:22;105.97;;;23.95;;
52438;SDS011;38359;53.150;6.504;2023-01-26T01:36:22;101.40;;;24.85;;
52438;SDS011;38359;53.150;6.504;2023-01-26T01:46:43;90.30;;;21.73;;
52438;SDS011;38359;53.150;6.504;2023-01-26T01:57:32;87.65;;;22.55;;
52438;SDS011;38359;53.150;6.504;2023-01-26T02:08:12;78.63;;;20.25;;
52438;SDS011;38359;53.150;6.504;2023-01-26T02:18:40;80.03;;;18.77;;
52438;SDS011;38359;53.150;6.504;2023-01-26T02:29:08;82.05;;;19.42;;
52438;SDS011;38359;53.150;6.504;2023-01-26T02:39:47;83.85;;;20.13;;
52438;SDS011;38359;53.150;6.504;2023-01-26T02:50:24;80.10;;;20.73;;
52438;SDS011;38359;53.150;6.504;2023-01-26T03:00:49;78.45;;;19.58;;
52438;SDS011;38359;53.150;6.504;2023-01-26T03:11:15;73.47;;;19.20;;
52438;SDS011;38359;53.150;6.504;2023-01-26T03:21:41;58.85;;;17.25;;
52438;SDS011;38359;53.150;6.504;2023-01-26T03:32:25;79.60;;;18.92;;
52438;SDS011;38359;53.150;6.504;2023-01-26T03:42:51;92.53;;;21.45;;
52438;SDS011;38359;53.150;6.504;2023-01-26T03:53:35;94.03;;;21.80;;
52438;SDS011;38359;53.150;6.504;2023-01-26T04:04:19;104.32;;;22.92;;
52438;SDS011;38359;53.150;6.504;2023-01-26T04:15:04;146.57;;;23.67;;
52438;SDS011;38359;53.150;6.504;2023-01-26T04:25:48;106.53;;;23.25;;
52438;SDS011;38359;53.150;6.504;2023-01-26T04:36:14;108.25;;;22.98;;
52438;SDS011;38359;53.150;6.504;2023-01-26T04:46:40;125.30;;;25.70;;
52438;SDS011;38359;53.150;6.504;2023-01-26T04:57:06;128.15;;;25.13;;
52438;SDS011;38359;53.150;6.504;2023-01-26T05:07:33;135.43;;;26.48;;
52438;SDS011;38359;53.150;6.504;2023-01-26T05:17:58;158.50;;;27.02;;
52438;SDS011;38359;53.150;6.504;2023-01-26T05:28:24;144.75;;;26.45;;
52438;SDS011;38359;53.150;6.504;2023-01-26T05:38:50;150.40;;;28.02;;
52438;SDS011;38359;53.150;6.504;2023-01-26T05:49:16;149.25;;;28.40;;
52438;SDS011;38359;53.150;6.504;2023-01-26T05:59:42;153.55;;;28.42;;
52438;SDS011;38359;53.150;6.504;2023-01-26T06:10:08;206.45;;;30.52;;
52438;SDS011;38359;53.150;6.504;2023-01-26T06:20:35;150.57;;;27.20;;
52438;SDS011;38359;53.150;6.504;2023-01-26T06:31:01;166.45;;;31.05;;
52438;SDS011;38359;53.150;6.504;2023-01-26T06:41:29;187.50;;;39.75;;
52438;SDS011;38359;53.150;6.504;2023-01-26T06:51:56;162.55;;;35.10;;
52438;SDS011;38359;53.150;6.504;2023-01-26T07:02:28;192.27;;;36.30;;
52438;SDS011;38359;53.150;6.504;2023-01-26T07:12:53;191.05;;;34.28;;
52438;SDS011;38359;53.150;6.504;2023-01-26T07:23:19;192.30;;;28.83;;
52438;SDS011;38359;53.150;6.504;2023-01-26T07:33:45;191.77;;;26.42;;
52438;SDS011;38359;53.150;6.504;2023-01-26T07:44:11;176.45;;;24.10;;
52438;SDS011;38359;53.150;6.504;2023-01-26T07:54:37;140.00;;;20.63;;
52438;SDS011;38359;53.150;6.504;2023-01-26T08:05:03;156.98;;;23.35;;
52438;SDS011;38359;53.150;6.504;2023-01-26T08:15:30;135.30;;;17.65;;
52438;SDS011;38359;53.150;6.504;2023-01-26T08:26:00;103.18;;;14.13;;
52438;SDS011;38359;53.150;6.504;2023-01-26T08:36:27;112.25;;;13.98;;
52438;SDS011;38359;53.150;6.504;2023-01-26T08:46:53;100.28;;;9.82;;
52438;SDS011;38359;53.150;6.504;2023-01-26T08:57:18;204.48;;;17.92;;
52438;SDS011;38359;53.150;6.504;2023-01-26T09:07:45;93.90;;;9.80;;
52438;SDS011;38359;53.150;6.504;2023-01-26T09:18:11;95.20;;;8.90;;
52438;SDS011;38359;53.150;6.504;2023-01-26T09:28:38;84.07;;;7.43;;
52438;SDS011;38359;53.150;6.504;2023-01-26T09:39:03;85.00;;;6.88;;
52438;SDS011;38359;53.150;6.504;2023-01-26T09:49:40;66.55;;;6.50;;
52438;SDS011;38359;53.150;6.504;2023-01-26T10:11:04;70.72;;;6.10;;
52438;SDS011;38359;53.150;6.504;2023-01-26T10:21:42;61.03;;;5.25;;
52438;SDS011;38359;53.150;6.504;2023-01-26T10:32:15;71.10;;;7.40;;
52438;SDS011;38359;53.150;6.504;2023-01-26T10:42:52;72.45;;;5.45;;
52438;SDS011;38359;53.150;6.504;2023-01-26T10:53:24;74.35;;;5.93;;
52438;SDS011;38359;53.150;6.504;2023-01-26T11:04:05;54.88;;;5.75;;
52438;SDS011;38359;53.150;6.504;2023-01-26T11:14:36;44.78;;;4.70;;
52438;SDS011;38359;53.150;6.504;2023-01-26T11:25:14;71.68;;;6.03;;
52438;SDS011;38359;53.150;6.504;2023-01-26T11:36:12;43.30;;;4.22;;
52438;SDS011;38359;53.150;6.504;2023-01-26T11:58:30;30.02;;;3.53;;
52438;SDS011;38359;53.150;6.504;2023-01-26T12:08:59;42.60;;;4.28;;
52438;SDS011;38359;53.150;6.504;2023-01-26T12:31:12;86.15;;;7.18;;
52438;SDS011;38359;53.150;6.504;2023-01-26T12:53:23;25.63;;;3.15;;
52438;SDS011;38359;53.150;6.504;2023-01-26T13:03:57;16.63;;;2.17;;
52438;SDS011;38359;53.150;6.504;2023-01-26T13:35:21;27.83;;;3.50;;
52438;SDS011;38359;53.150;6.504;2023-01-26T13:46:01;39.33;;;3.15;;
52438;SDS011;38359;53.150;6.504;2023-01-26T13:56:58;32.63;;;2.83;;
52438;SDS011;38359;53.150;6.504;2023-01-26T14:07:31;20.42;;;2.80;;
52438;SDS011;38359;53.150;6.504;2023-01-26T14:28:31;19.98;;;2.60;;
52438;SDS011;38359;53.150;6.504;2023-01-26T14:39:00;22.00;;;2.97;;
52438;SDS011;38359;53.150;6.504;2023-01-26T15:00:29;32.30;;;3.70;;
52438;SDS011;38359;53.150;6.504;2023-01-26T15:11:01;41.85;;;3.90;;
52438;SDS011;38359;53.150;6.504;2023-01-26T15:21:46;32.25;;;3.90;;
52438;SDS011;38359;53.150;6.504;2023-01-26T15:32:26;34.40;;;3.90;;
52438;SDS011;38359;53.150;6.504;2023-01-26T15:43:14;29.40;;;3.58;;
52438;SDS011;38359;53.150;6.504;2023-01-26T15:53:42;37.17;;;4.57;;
52438;SDS011;38359;53.150;6.504;2023-01-26T16:04:12;32.78;;;3.63;;
52438;SDS011;38359;53.150;6.504;2023-01-26T16:14:38;30.02;;;3.47;;
52438;SDS011;38359;53.150;6.504;2023-01-26T16:25:10;46.03;;;5.18;;
52438;SDS011;38359;53.150;6.504;2023-01-26T16:35:47;39.38;;;4.15;;
52438;SDS011;38359;53.150;6.504;2023-01-26T16:46:13;47.00;;;5.22;;
52438;SDS011;38359;53.150;6.504;2023-01-26T16:56:39;39.45;;;4.20;;
52438;SDS011;38359;53.150;6.504;2023-01-26T17:07:05;38.47;;;4.50;;
52438;SDS011;38359;53.150;6.504;2023-01-26T17:17:31;43.80;;;4.38;;
52438;SDS011;38359;53.150;6.504;2023-01-26T17:27:57;36.75;;;5.38;;
52438;SDS011;38359;53.150;6.504;2023-01-26T17:38:23;36.58;;;4.43;;
52438;SDS011;38359;53.150;6.504;2023-01-26T17:48:48;42.90;;;4.40;;
52438;SDS011;38359;53.150;6.504;2023-01-26T17:59:23;34.85;;;3.65;;
52438;SDS011;38359;53.150;6.504;2023-01-26T18:11:19;34.95;;;4.20;;
52438;SDS011;38359;53.150;6.504;2023-01-26T18:23:44;46.58;;;4.65;;
52438;SDS011;38359;53.150;6.504;2023-01-26T18:35:13;41.53;;;4.07;;
52438;SDS011;38359;53.150;6.504;2023-01-26T18:47:36;36.15;;;3.80;;
52438;SDS011;38359;53.150;6.504;2023-01-26T18:58:01;34.90;;;4.07;;
52438;SDS011;38359;53.150;6.504;2023-01-26T19:08:28;42.60;;;3.65;;
52438;SDS011;38359;53.150;6.504;2023-01-26T19:18:58;54.40;;;3.97;;
52438;SDS011;38359;53.150;6.504;2023-01-26T19:30:11;35.13;;;2.97;;
52438;SDS011;38359;53.150;6.504;2023-01-26T19:40:38;42.72;;;3.45;;
52438;SDS011;38359;53.150;6.504;2023-01-26T19:51:09;38.33;;;2.97;;
52438;SDS011;38359;53.150;6.504;2023-01-26T20:02:01;35.55;;;3.33;;
52438;SDS011;38359;53.150;6.504;2023-01-26T20:12:27;39.42;;;3.10;;
52438;SDS011;38359;53.150;6.504;2023-01-26T20:22:53;28.75;;;3.65;;
52438;SDS011;38359;53.150;6.504;2023-01-26T20:33:19;42.30;;;3.78;;
52438;SDS011;38359;53.150;6.504;2023-01-26T20:43:45;36.30;;;3.42;;
52438;SDS011;38359;53.150;6.504;2023-01-26T20:54:12;36.03;;;4.38;;
52438;SDS011;38359;53.150;6.504;2023-01-26T21:04:42;29.02;;;4.38;;
52438;SDS011;38359;53.150;6.504;2023-01-26T21:15:08;26.85;;;3.90;;
52438;SDS011;38359;53.150;6.504;2023-01-26T21:25:34;24.27;;;4.47;;
52438;SDS011;38359;53.150;6.504;2023-01-26T21:36:01;34.92;;;5.60;;
52438;SDS011;38359;53.150;6.504;2023-01-26T21:46:29;23.02;;;5.93;;
52438;SDS011;38359;53.150;6.504;2023-01-26T21:56:55;26.40;;;6.75;;
52438;SDS011;38359;53.150;6.504;2023-01-26T22:07:22;28.58;;;6.43;;
52438;SDS011;38359;53.150;6.504;2023-01-26T22:17:50;22.80;;;6.95;;
52438;SDS011;38359;53.150;6.504;2023-01-26T22:28:15;27.58;;;7.25;;
52438;SDS011;38359;53.150;6.504;2023-01-26T22:38:41;31.30;;;9.77;;
52438;SDS011;38359;53.150;6.504;2023-01-26T22:49:09;30.15;;;11.25;;
52438;SDS011;38359;53.150;6.504;2023-01-26T22:59:34;28.48;;;11.48;;
52438;SDS011;38359;53.150;6.504;2023-01-26T23:10:00;29.25;;;12.07;;
52438;SDS011;38359;53.150;6.504;2023-01-26T23:20:26;25.88;;;13.48;;
52438;SDS011;38359;53.150;6.504;2023-01-26T23:30:52;25.92;;;14.07;;
52438;SDS011;38359;53.150;6.504;2023-01-26T23:41:20;28.75;;;15.05;;
52438;SDS011;38359;53.150;6.504;2023-01-26T23:51:46;28.08;;;15.45;;
